createdAt,value
2018-07-12T00:01:52.620Z,101893.55
2018-07-12T00:04:20.444Z,101894.69
2018-07-12T00:06:48.273Z,101897.70
2018-07-12T00:09:16.097Z,101896.02
2018-07-12T00:11:43.922Z,101893.72
2018-07-12T00:14:11.747Z,101887.88
2018-07-12T00:16:39.594Z,101891.66
2018-07-12T00:19:07.417Z,101890.90
2018-07-12T00:21:35.251Z,101893.88
2018-07-12T00:24:03.074Z,101894.07
2018-07-12T00:26:30.896Z,101895.42
2018-07-12T00:28:58.782Z,101894.64
2018-07-12T00:31:26.617Z,101896.40
2018-07-12T00:33:54.446Z,101898.53
2018-07-12T00:36:22.275Z,101900.07
2018-07-12T00:38:50.109Z,101901.08
2018-07-12T00:41:18.020Z,101899.14
2018-07-12T00:43:45.866Z,101892.45
2018-07-12T00:46:13.704Z,101889.84
2018-07-12T00:48:41.528Z,101894.22
2018-07-12T00:51:09.368Z,101894.41
2018-07-12T00:53:37.207Z,101890.42
2018-07-12T00:56:05.146Z,101885.41
2018-07-12T00:58:33.016Z,101890.44
2018-07-12T01:01:00.824Z,101891.60
2018-07-12T01:03:28.661Z,101891.30
2018-07-12T01:05:56.489Z,101891.86
2018-07-12T01:08:24.310Z,101884.52
2018-07-12T01:10:52.194Z,101887.70
2018-07-12T01:13:20.021Z,101892.11
2018-07-12T01:15:47.852Z,101894.13
2018-07-12T01:18:15.683Z,101891.89
2018-07-12T01:20:43.525Z,101891.20
2018-07-12T01:23:12.209Z,101886.95
2018-07-12T01:25:40.040Z,101882.61
2018-07-12T01:28:07.870Z,101876.70
2018-07-12T01:30:35.705Z,101888.55
2018-07-12T01:33:03.545Z,101883.31
2018-07-12T01:35:31.417Z,101885.61
2018-07-12T01:37:59.248Z,101889.90
2018-07-12T01:40:27.112Z,101886.78
2018-07-12T01:42:54.948Z,101882.98
2018-07-12T01:45:22.758Z,101886.38
2018-07-12T01:47:50.603Z,101872.06
2018-07-12T01:50:18.436Z,101869.08
2018-07-12T01:52:46.248Z,101879.06
2018-07-12T01:55:14.124Z,101882.91
2018-07-12T01:57:41.952Z,101885.92
2018-07-12T02:00:09.829Z,101876.62
2018-07-12T02:02:37.666Z,101875.36
2018-07-12T02:05:05.500Z,101878.26
2018-07-12T02:07:33.336Z,101879.30
2018-07-12T02:10:01.334Z,101880.59
2018-07-12T02:12:29.173Z,101882.91
2018-07-12T02:14:57.002Z,101880.84
2018-07-12T02:17:24.841Z,101884.84
2018-07-12T02:19:52.670Z,101879.30
2018-07-12T02:22:20.502Z,101879.24
2018-07-12T02:24:48.318Z,101880.28
2018-07-12T02:27:16.137Z,101885.16
2018-07-12T02:29:43.974Z,101887.53
2018-07-12T02:32:11.816Z,101882.60
2018-07-12T02:34:39.668Z,101884.23
2018-07-12T02:37:07.482Z,101881.86
2018-07-12T02:39:35.313Z,101887.37
2018-07-12T02:42:03.194Z,101881.73
2018-07-12T02:44:31.021Z,101879.80
2018-07-12T02:46:58.863Z,101874.20
2018-07-12T02:49:26.713Z,101875.33
2018-07-12T02:51:54.587Z,101877.09
2018-07-12T02:54:22.437Z,101876.91
2018-07-12T02:56:50.307Z,101875.06
2018-07-12T02:59:18.175Z,101878.26
2018-07-12T03:01:46.003Z,101876.01
2018-07-12T03:04:13.847Z,101878.45
2018-07-12T03:06:41.666Z,101874.97
2018-07-12T03:09:09.703Z,101879.12
2018-07-12T03:11:37.576Z,101879.11
2018-07-12T03:14:05.964Z,101877.17
2018-07-12T03:16:33.799Z,101879.11
2018-07-12T03:19:01.649Z,101877.76
2018-07-12T03:21:29.499Z,101886.08
2018-07-12T03:23:57.326Z,101883.36
2018-07-12T03:26:25.165Z,101885.61
2018-07-12T03:28:52.987Z,101886.48
2018-07-12T03:31:20.825Z,101890.25
2018-07-12T03:33:48.657Z,101891.40
2018-07-12T03:36:16.799Z,101888.40
2018-07-12T03:38:44.655Z,101891.89
2018-07-12T03:41:12.490Z,101893.34
2018-07-12T03:43:40.325Z,101887.52
2018-07-12T03:46:08.155Z,101887.14
2018-07-12T03:48:35.971Z,101886.95
2018-07-12T03:51:03.806Z,101885.20
2018-07-12T03:53:31.631Z,101890.71
2018-07-12T03:55:59.482Z,101885.97
2018-07-12T03:58:27.322Z,101895.85
2018-07-12T04:00:55.141Z,101892.29
2018-07-12T04:03:22.971Z,101891.22
2018-07-12T04:05:50.835Z,101894.59
2018-07-12T04:08:18.659Z,101895.27
2018-07-12T04:10:46.523Z,101893.92
2018-07-12T04:13:14.403Z,101894.59
2018-07-12T04:15:42.213Z,101892.56
2018-07-12T04:18:10.049Z,101896.05
2018-07-12T04:20:37.885Z,101897.98
2018-07-12T04:23:05.715Z,101895.66
2018-07-12T04:25:33.545Z,101896.92
2018-07-12T04:28:01.409Z,101892.73
2018-07-12T04:30:29.279Z,101897.78
2018-07-12T04:32:57.109Z,101895.76
2018-07-12T04:35:24.936Z,101900.50
2018-07-12T04:37:52.833Z,101900.41
2018-07-12T04:40:20.585Z,101897.22
2018-07-12T04:42:48.423Z,101904.19
2018-07-12T04:45:16.252Z,101891.80
2018-07-12T04:47:44.147Z,101894.70
2018-07-12T04:50:12.007Z,101896.73
2018-07-12T04:52:39.839Z,101897.22
2018-07-12T04:55:07.663Z,101896.64
2018-07-12T04:57:35.516Z,101893.93
2018-07-12T05:00:03.341Z,101896.64
2018-07-12T05:02:31.175Z,101889.86
2018-07-12T05:04:58.997Z,101898.36
2018-07-12T05:07:26.880Z,101890.64
2018-07-12T05:09:54.710Z,101886.75
2018-07-12T05:12:22.545Z,101893.44
2018-07-12T05:14:50.365Z,101891.22
2018-07-12T05:17:18.211Z,101889.90
2018-07-12T05:19:46.073Z,101897.13
2018-07-12T05:22:13.925Z,101893.65
2018-07-12T05:24:41.784Z,101899.34
2018-07-12T05:27:09.609Z,101894.64
2018-07-12T05:29:37.437Z,101897.13
2018-07-12T05:32:05.239Z,101897.03
2018-07-12T05:34:33.089Z,101898.48
2018-07-12T05:37:02.525Z,101904.97
2018-07-12T05:39:31.503Z,101901.45
2018-07-12T05:42:00.464Z,101900.98
2018-07-12T05:44:29.381Z,101908.52
2018-07-12T05:46:58.334Z,101907.34
2018-07-12T05:49:27.255Z,101908.05
2018-07-12T05:51:56.249Z,101904.57
2018-07-12T05:54:25.163Z,101910.39
2018-07-12T05:56:54.076Z,101916.17
2018-07-12T05:59:28.413Z,101917.17
2018-07-12T06:02:14.419Z,101923.73
2018-07-12T06:04:43.339Z,101918.30
2018-07-12T06:07:12.229Z,101921.41
2018-07-12T06:09:41.193Z,101929.37
2018-07-12T06:12:10.115Z,101918.70
2018-07-12T06:14:39.002Z,101922.77
2018-07-12T06:17:07.925Z,101924.39
2018-07-12T06:19:36.917Z,101923.14
2018-07-12T06:22:05.890Z,101928.95
2018-07-12T06:24:34.869Z,101942.80
2018-07-12T06:27:03.806Z,101935.34
2018-07-12T06:29:32.784Z,101939.23
2018-07-12T06:32:01.718Z,101942.62
2018-07-12T06:34:30.708Z,101945.83
2018-07-12T06:36:59.636Z,101946.01
2018-07-12T06:39:28.592Z,101952.88
2018-07-12T06:41:57.481Z,101953.55
2018-07-12T06:44:26.977Z,101958.98
2018-07-12T06:46:56.093Z,101962.09
2018-07-12T06:49:25.094Z,101961.10
2018-07-12T06:51:54.057Z,101961.09
2018-07-12T06:54:22.961Z,101960.42
2018-07-12T06:56:51.928Z,101964.58
2018-07-12T06:59:20.851Z,101961.27
2018-07-12T07:01:49.828Z,101970.83
2018-07-12T07:04:18.775Z,101972.62
2018-07-12T07:06:47.728Z,101982.11
2018-07-12T07:09:16.715Z,101981.92
2018-07-12T07:11:45.639Z,101981.92
2018-07-12T07:14:14.636Z,101983.86
2018-07-12T07:16:43.592Z,101982.42
2018-07-12T07:19:12.526Z,101983.87
2018-07-12T07:21:41.469Z,101988.98
2018-07-12T07:24:10.426Z,101990.73
2018-07-12T07:26:39.620Z,101988.97
2018-07-12T07:29:08.544Z,101995.74
2018-07-12T07:31:37.480Z,101988.17
2018-07-12T07:34:06.402Z,101990.48
2018-07-12T07:36:35.357Z,101995.87
2018-07-12T07:39:05.581Z,101994.27
2018-07-12T07:41:34.532Z,101994.88
2018-07-12T07:44:03.773Z,102000.88
2018-07-12T07:46:32.705Z,101991.72
2018-07-12T07:49:01.719Z,102004.03
2018-07-12T07:51:30.687Z,102000.95
2018-07-12T07:53:59.597Z,102011.23
2018-07-12T07:56:28.555Z,102007.25
2018-07-12T07:58:57.492Z,102016.25
2018-07-12T08:01:26.470Z,102010.13
2018-07-12T08:03:55.553Z,102013.71
2018-07-12T08:06:24.510Z,102013.22
2018-07-12T08:08:53.460Z,102012.14
2018-07-12T08:11:22.416Z,102013.37
2018-07-12T08:13:51.379Z,102013.84
2018-07-12T08:16:20.346Z,102013.08
2018-07-12T08:18:49.326Z,102016.58
2018-07-12T08:21:18.313Z,102014.83
2018-07-12T08:23:47.508Z,102010.78
2018-07-12T08:26:16.428Z,102005.50
2018-07-12T08:28:45.421Z,102013.77
2018-07-12T08:31:14.372Z,102009.91
2018-07-12T08:33:43.369Z,102013.64
2018-07-12T08:36:12.277Z,102018.19
2018-07-12T08:38:41.164Z,102022.06
2018-07-12T08:41:10.132Z,102015.52
2018-07-12T08:43:39.061Z,102028.65
2018-07-12T08:46:08.061Z,102030.86
2018-07-12T08:48:36.971Z,102021.94
2018-07-12T08:51:05.899Z,102025.69
2018-07-12T08:53:38.578Z,102020.13
2018-07-12T08:56:07.469Z,102024.92
2018-07-12T08:58:36.385Z,102014.49
2018-07-12T09:01:05.319Z,102011.27
2018-07-12T09:03:34.252Z,102017.77
2018-07-12T09:06:03.207Z,102026.13
2018-07-12T09:08:32.140Z,102023.36
2018-07-12T09:11:01.063Z,102029.45
2018-07-12T09:13:30.053Z,102023.97
2018-07-12T09:15:58.936Z,102022.23
2018-07-12T09:18:27.950Z,102019.64
2018-07-12T09:20:56.965Z,102014.95
2018-07-12T09:23:25.876Z,102021.05
2018-07-12T09:25:55.848Z,102021.10
2018-07-12T09:28:24.792Z,102027.05
2018-07-12T09:30:53.843Z,102018.68
2018-07-12T09:33:22.691Z,102019.32
2018-07-12T09:35:51.679Z,102016.23
2018-07-12T09:38:31.955Z,102022.22
2018-07-12T09:41:00.894Z,102019.64
2018-07-12T09:43:30.235Z,102024.58
2018-07-12T09:45:59.232Z,102015.55
2018-07-12T09:48:28.191Z,102022.00
2018-07-12T09:50:57.190Z,102013.77
2018-07-12T09:53:26.128Z,102014.94
2018-07-12T09:55:55.132Z,102014.95
2018-07-12T09:58:28.936Z,102015.12
2018-07-12T10:01:03.280Z,102026.66
2018-07-12T10:03:37.371Z,102034.35
2018-07-12T10:06:11.601Z,102025.44
2018-07-12T10:08:45.862Z,102030.05
2018-07-12T10:11:20.136Z,102030.79
2018-07-12T10:13:54.440Z,102035.73
2018-07-12T10:16:28.614Z,102035.58
2018-07-12T10:18:57.605Z,102026.44
2018-07-12T10:21:26.562Z,102041.38
2018-07-12T10:23:55.479Z,102041.22
2018-07-12T10:26:24.410Z,102032.41
2018-07-12T10:28:53.359Z,102035.52
2018-07-12T10:31:22.261Z,102037.91
2018-07-12T10:33:53.237Z,102049.28
2018-07-12T10:36:22.234Z,102032.12
2018-07-12T10:38:51.137Z,102035.50
2018-07-12T10:41:20.003Z,102032.88
2018-07-12T10:43:49.016Z,102038.98
2018-07-12T10:46:17.962Z,102034.86
2018-07-12T10:48:46.880Z,102027.55
2018-07-12T10:51:15.793Z,102038.14
2018-07-12T10:53:44.684Z,102024.30
2018-07-12T10:56:13.638Z,102032.70
2018-07-12T10:58:42.592Z,102021.81
2018-07-12T11:01:12.708Z,102039.94
2018-07-12T11:03:41.656Z,102037.08
2018-07-12T11:06:10.589Z,102032.92
2018-07-12T11:08:39.589Z,102039.44
2018-07-12T11:11:08.483Z,102033.31
2018-07-12T11:13:50.429Z,102035.68
2018-07-12T11:16:19.600Z,102037.16
2018-07-12T11:18:48.776Z,102032.09
2018-07-12T11:21:17.710Z,102020.05
2018-07-12T11:23:46.630Z,102031.02
2018-07-12T11:26:15.638Z,102031.67
2018-07-12T11:28:44.572Z,102034.82
2018-07-12T11:31:13.537Z,102031.52
2018-07-12T11:33:46.606Z,102034.20
2018-07-12T11:36:15.553Z,102029.09
2018-07-12T11:38:45.046Z,102023.74
2018-07-12T11:41:14.102Z,102029.92
2018-07-12T11:43:43.049Z,102015.52
2018-07-12T11:46:13.185Z,102021.94
2018-07-12T11:48:42.910Z,102022.00
2018-07-12T11:51:11.900Z,102020.18
2018-07-12T11:53:40.820Z,102026.63
2018-07-12T11:56:09.730Z,102013.89
2018-07-12T11:58:38.665Z,102008.98
2018-07-12T12:01:07.887Z,102013.43
2018-07-12T12:03:36.796Z,102008.72
2018-07-12T12:06:05.756Z,102020.45
2018-07-12T12:08:34.651Z,102009.67
2018-07-12T12:11:03.576Z,102017.44
2018-07-12T12:13:32.462Z,102008.59
2018-07-12T12:16:01.407Z,102015.80
2018-07-12T12:18:30.348Z,102013.34
2018-07-12T12:20:59.252Z,102016.82
2018-07-12T12:23:28.176Z,102005.53
2018-07-12T12:25:57.077Z,102013.36
2018-07-12T12:28:26.001Z,102006.67
2018-07-12T12:30:54.971Z,102005.42
2018-07-12T12:33:23.920Z,102008.27
2018-07-12T12:35:52.869Z,102005.93
2018-07-12T12:38:21.887Z,102012.64
2018-07-12T12:40:50.947Z,102010.02
2018-07-12T12:43:19.867Z,102008.78
2018-07-12T12:45:48.867Z,102013.03
2018-07-12T12:48:17.782Z,102021.84
2018-07-12T12:50:46.807Z,102011.39
2018-07-12T12:53:15.741Z,102018.09
2018-07-12T12:55:44.701Z,102013.50
2018-07-12T12:58:13.592Z,102021.80
2018-07-12T13:00:42.796Z,102014.00
2018-07-12T13:03:11.761Z,102013.62
2018-07-12T13:05:40.641Z,102014.39
2018-07-12T13:08:09.673Z,102009.30
2018-07-12T13:10:38.583Z,102012.02
2018-07-12T13:13:07.723Z,102010.42
2018-07-12T13:15:36.679Z,102013.77
2018-07-12T13:18:05.867Z,102025.98
2018-07-12T13:20:34.841Z,102010.51
2018-07-12T13:23:03.807Z,102008.27
2018-07-12T13:25:32.816Z,102012.25
2018-07-12T13:28:01.717Z,102025.55
2018-07-12T13:30:30.622Z,102014.98
2018-07-12T13:32:59.665Z,102023.97
2018-07-12T13:35:28.712Z,102023.02
2018-07-12T13:37:57.596Z,102028.37
2018-07-12T13:40:26.505Z,102021.05
2018-07-12T13:42:55.404Z,102024.06
2018-07-12T13:45:24.379Z,102019.80
2018-07-12T13:47:53.347Z,102012.87
2018-07-12T13:50:22.449Z,102019.70
2018-07-12T13:52:51.391Z,102017.59
2018-07-12T13:55:20.309Z,102022.80
2018-07-12T13:57:49.216Z,102030.83
2018-07-12T14:00:18.281Z,102021.33
2018-07-12T14:02:47.176Z,102018.33
2018-07-12T14:05:16.483Z,102019.34
2018-07-12T14:07:45.385Z,102019.97
2018-07-12T14:10:14.341Z,102020.08
2018-07-12T14:12:43.239Z,102014.00
2018-07-12T14:15:12.157Z,102016.73
2018-07-12T14:17:41.067Z,102012.25
2018-07-12T14:20:10.011Z,102006.80
2018-07-12T14:22:38.936Z,102019.34
2018-07-12T14:25:07.853Z,102015.33
2018-07-12T14:27:36.787Z,102011.60
2018-07-12T14:30:06.203Z,102014.61
2018-07-12T14:32:35.154Z,102007.52
2018-07-12T14:35:04.141Z,102008.27
2018-07-12T14:37:33.063Z,102005.31
2018-07-12T14:40:02.016Z,102010.13
2018-07-12T14:42:30.961Z,102017.34
2018-07-12T14:44:59.934Z,102011.68
2018-07-12T14:47:28.879Z,102002.42
2018-07-12T14:49:57.800Z,102010.51
2018-07-12T14:52:26.748Z,102002.95
2018-07-12T14:54:55.721Z,102000.57
2018-07-12T14:57:24.736Z,102002.55
2018-07-12T14:59:53.721Z,102007.73
2018-07-12T15:02:22.662Z,102007.26
2018-07-12T15:04:51.623Z,102005.53
2018-07-12T15:07:21.468Z,102001.20
2018-07-12T15:10:02.609Z,102008.36
2018-07-12T15:21:50.637Z,102000.23
2018-07-12T15:24:19.619Z,102003.53
2018-07-12T15:26:48.525Z,101996.20
2018-07-12T15:29:17.512Z,101992.75
2018-07-12T15:31:46.385Z,101998.25
2018-07-12T15:34:15.346Z,101995.87
2018-07-12T15:36:44.313Z,102000.81
2018-07-12T15:39:13.245Z,102000.59
2018-07-12T15:41:42.279Z,102004.80
2018-07-12T15:44:11.206Z,102003.08
2018-07-12T15:46:40.154Z,102005.30
2018-07-12T15:49:09.031Z,102008.11
2018-07-12T15:51:38.147Z,102008.84
2018-07-12T15:54:07.233Z,102006.84
2018-07-12T15:56:36.294Z,102002.88
2018-07-12T15:59:05.261Z,101998.67
2018-07-12T16:01:34.208Z,101998.34
2018-07-12T16:05:32.397Z,102006.02
2018-07-12T16:08:01.405Z,101998.67
2018-07-12T16:10:30.380Z,102012.69
2018-07-12T16:12:59.305Z,102003.15
2018-07-12T16:15:28.296Z,101999.39
2018-07-12T16:17:57.177Z,102006.33
2018-07-12T16:20:26.136Z,101996.91
2018-07-12T16:22:55.133Z,102000.75
2018-07-12T16:25:24.051Z,102012.33
2018-07-12T16:27:53.018Z,102001.20
2018-07-12T16:30:21.913Z,101997.70
2018-07-12T16:32:50.901Z,101992.02
2018-07-12T16:35:19.793Z,101992.80
2018-07-12T16:37:49.096Z,101998.27
2018-07-12T16:40:18.146Z,101986.92
2018-07-12T16:42:47.185Z,101999.04
2018-07-12T16:45:16.111Z,101992.50
2018-07-12T16:47:45.052Z,101998.05
2018-07-12T16:50:13.993Z,101998.84
2018-07-12T16:52:42.917Z,101997.59
2018-07-12T16:55:12.143Z,101990.08
2018-07-12T16:57:41.221Z,101996.55
2018-07-12T17:00:10.238Z,102004.45
2018-07-12T17:02:39.391Z,102001.81
2018-07-12T17:05:08.338Z,102010.79
2018-07-12T17:07:37.555Z,102001.98
2018-07-12T17:10:06.438Z,102010.05
2018-07-12T17:12:35.410Z,102012.33
2018-07-12T17:15:04.532Z,102007.62
2018-07-12T17:17:33.489Z,102016.55
2018-07-12T17:20:02.425Z,102014.13
2018-07-12T17:22:31.713Z,102016.63
2018-07-12T17:25:01.013Z,102017.91
2018-07-12T17:27:29.994Z,102010.23
2018-07-12T17:29:58.927Z,102014.68
2018-07-12T17:32:27.846Z,102014.82
2018-07-12T17:34:56.799Z,102021.00
2018-07-12T17:37:25.689Z,102029.87
2018-07-12T17:39:54.609Z,102030.31
2018-07-12T17:42:23.540Z,102027.63
2018-07-12T17:44:52.462Z,102027.41
2018-07-12T17:47:21.456Z,102019.31
2018-07-12T17:49:50.368Z,102036.97
2018-07-12T17:52:19.315Z,102026.80
2018-07-12T17:54:48.207Z,102028.70
2018-07-12T17:57:17.164Z,102026.44
2018-07-12T17:59:46.068Z,102035.93
2018-07-12T18:02:14.965Z,102032.86
2018-07-12T18:04:43.892Z,102029.34
2018-07-12T18:07:12.816Z,102028.69
2018-07-12T18:09:41.791Z,102036.50
2018-07-12T18:12:10.749Z,102045.67
2018-07-12T18:14:39.641Z,102040.44
2018-07-12T18:17:08.624Z,102045.94
2018-07-12T18:19:37.509Z,102035.20
2018-07-12T18:22:06.619Z,102029.40
2018-07-12T18:33:22.030Z,102034.07
2018-07-12T18:43:40.709Z,102035.61
2018-07-12T18:46:23.978Z,102036.59
2018-07-12T18:48:52.959Z,102044.91
2018-07-12T18:51:21.903Z,102049.02
2018-07-12T19:29:19.598Z,102049.91
2018-07-12T19:31:48.544Z,102060.44
2018-07-12T19:34:17.502Z,102062.02
2018-07-12T19:36:46.512Z,102060.75
2018-07-12T19:39:15.470Z,102068.39
2018-07-12T19:41:44.502Z,102062.11
2018-07-12T19:44:13.486Z,102072.38
2018-07-12T19:46:42.435Z,102074.03
2018-07-12T19:49:11.372Z,102072.87
2018-07-12T19:51:40.360Z,102069.75
2018-07-12T19:54:09.298Z,102070.16
2018-07-12T19:56:38.303Z,102077.89
2018-07-12T19:59:10.382Z,102073.23
2018-07-12T20:01:39.416Z,102080.70
2018-07-12T20:04:08.396Z,102081.47
2018-07-12T20:06:37.434Z,102085.27
2018-07-12T20:09:07.578Z,102082.73
2018-07-12T20:11:53.020Z,102081.37
2018-07-12T20:14:22.049Z,102089.23
2018-07-12T20:16:51.040Z,102101.16
2018-07-12T20:19:19.979Z,102100.09
2018-07-12T20:21:48.984Z,102103.75
2018-07-12T20:24:17.926Z,102100.08
2018-07-12T20:26:46.848Z,102099.88
2018-07-12T20:29:16.389Z,102092.43
2018-07-12T20:31:45.365Z,102101.51
2018-07-12T20:34:14.272Z,102101.11
2018-07-12T20:36:44.460Z,102088.91
2018-07-12T20:39:13.420Z,102098.80
2018-07-12T20:41:42.392Z,102093.19
2018-07-12T20:44:11.358Z,102097.44
2018-07-12T20:46:40.304Z,102096.28
2018-07-12T20:49:09.240Z,102098.96
2018-07-12T20:51:38.182Z,102100.91
2018-07-12T20:54:07.138Z,102106.49
2018-07-12T20:56:36.120Z,102104.68
2018-07-12T20:59:05.084Z,102105.91
2018-07-12T21:01:34.160Z,102105.16
2018-07-12T21:04:03.108Z,102101.50
2018-07-12T21:06:32.088Z,102115.83
2018-07-12T21:09:08.532Z,102109.14
2018-07-12T21:11:38.468Z,102110.70
2018-07-12T21:14:07.445Z,102110.20
2018-07-12T21:16:36.389Z,102116.69
2018-07-12T21:19:05.884Z,102113.87
2018-07-12T21:21:34.940Z,102115.63
2018-07-12T21:24:03.889Z,102114.38
2018-07-12T21:26:32.847Z,102119.41
2018-07-12T21:29:01.761Z,102117.05
2018-07-12T21:31:30.704Z,102111.55
2018-07-12T21:33:59.672Z,102116.75
2018-07-12T21:36:28.654Z,102115.61
2018-07-12T21:38:57.805Z,102118.20
2018-07-12T21:41:26.741Z,102112.21
2018-07-12T21:43:55.762Z,102113.73
2018-07-12T21:46:24.696Z,102113.36
2018-07-12T21:48:53.632Z,102114.52
2018-07-12T21:51:22.608Z,102115.00
2018-07-12T21:53:51.644Z,102117.83
2018-07-12T21:56:20.751Z,102118.78
2018-07-12T21:58:49.745Z,102120.34
2018-07-12T22:01:18.707Z,102120.77
2018-07-12T22:03:47.660Z,102126.56
2018-07-12T22:06:19.484Z,102119.73
2018-07-12T22:08:48.449Z,102117.69
2018-07-12T22:11:17.480Z,102114.55
2018-07-12T22:13:46.438Z,102116.28
2018-07-12T22:16:15.386Z,102115.98
2018-07-12T22:18:44.386Z,102118.72
2018-07-12T22:21:13.376Z,102129.83
2018-07-12T22:23:42.284Z,102125.21
2018-07-12T22:26:11.228Z,102124.49
2018-07-12T22:28:40.187Z,102122.67
2018-07-12T22:31:09.286Z,102116.19
2018-07-12T22:33:38.268Z,102124.98
2018-07-12T22:36:07.226Z,102118.61
2018-07-12T22:38:36.156Z,102119.39
2018-07-12T22:41:05.095Z,102121.86
2018-07-12T22:43:34.044Z,102126.30
2018-07-12T22:59:02.486Z,102126.81
2018-07-12T23:01:31.507Z,102126.22
2018-07-12T23:04:00.454Z,102124.28
2018-07-12T23:06:29.435Z,102121.06
2018-07-12T23:08:58.375Z,102124.05
2018-07-12T23:11:27.314Z,102125.64
2018-07-12T23:13:56.307Z,102129.84
2018-07-12T23:16:25.229Z,102124.43
2018-07-12T23:18:54.193Z,102122.27
2018-07-12T23:21:28.714Z,102121.49
2018-07-12T23:23:57.650Z,102124.38
2018-07-12T23:26:26.630Z,102125.09
2018-07-12T23:28:55.568Z,102124.51
2018-07-12T23:31:24.526Z,102123.97
2018-07-12T23:33:53.478Z,102120.72
2018-07-12T23:36:22.406Z,102120.48
2018-07-12T23:38:51.405Z,102121.80
2018-07-12T23:41:20.385Z,102121.00
2018-07-12T23:43:49.305Z,102120.48
2018-07-12T23:46:18.192Z,102121.63
2018-07-12T23:48:47.154Z,102117.28
2018-07-12T23:51:16.076Z,102115.64
2018-07-12T23:53:44.999Z,102114.86
2018-07-12T23:56:13.987Z,102117.13
2018-07-12T23:58:42.985Z,102116.92
